Airfield :
LOGIN :

Register | Disclaimer

   EN    FR    IT 

 










Legend :    VFR   Marginal VFR   IFR   Intensive IFR   Very Intensive IFR
Visi :
Ceiling :
>= 8 km
>= 3000ft
5 to 8 km
1000 to 3000 ft
1500m to 5 km
500 to 1000 ft
800 to 1500m
200 to 500 ft
< 800m
< 200 ft
Symbols :   Thunderstorms  Fog  Heavy snow  Heavy precipitations  Wind > 20 kt
SIGMETs :     Misc.  Thunderstorms  Icing  Turbulence  Mountain Waves  Volcanic Ashes






- Airport Elevation : 82 ft
- IATA code : AAR


EKAH - Aarhus Tirstrup

CURRENT METAR :
  • 061650Z AUTO VRB06KT 9999NDV SCT038/// 14/07 Q0997

EXPIRED METARs :
  • 061620Z AUTO 25009G20KT 200V280 9999NDV FEW031/// BKN059/// 15/06 Q0997
  • 061550Z AUTO 25007KT 190V280 9999NDV BKN031/// 14/07 Q0997
  • 061520Z AUTO 26008KT 200V290 9999NDV BKN038/// 14/07 Q0997
  • 061450Z AUTO 25011KT 180V290 9999NDV SCT041/// 14/07 Q0996
  • 061420Z AUTO 24010KT 190V270 9999NDV FEW036/// SCT050/// BKN074/// 15/07 Q0996

Expired Forecast.



MET'MAP, your aeronautical weather chart ! - Copyright ORBIFLY December 2007 - Disclaimer

ORBIFLY MET'MAP TEAM :

Programming & Development : Alexandra Zaïnal
Concept & original design : Baudouin d'Aumeries
Assistance for programming : Marc-Olivier Méhu
Technical & hardware support : Manuel Goepfert

Contact : metmap@orbifly.com




SOURCES & CREDITS :

   NOAA